Weather at Oswego County Airport

Public forecast

Using degrees Fahrenheit for public forecast. Weather courtesy of forecast.io.

Current aviation weather report (METAR) for Oswego County Airport

Retrieved 2020/11/27 03:34 UTC (1 hour ago):

KFZY 270334Z AUTO 27008KT 10SM BKN019 OVC050 10/08 A3003 RMK AO2 T01000078

Closest aviation forecast (TAF) to Oswego County Airport

Closest forecast is Syracuse Hancock International Airport, 18.9 nm (35.1 km) SE. Retrieved 2020-11-27 00:36 UTC (4 hours ago):

TAF KSYR 262328Z 2700/2724 25008KT P6SM OVC015 FM270500 26006KT P6SM OVC020 FM271800 27005KT P6SM OVC035